sensor_id;sensor_type;location;lat;lon;timestamp;noise_LAeq;noise_LA_min;noise_LA_max;noise_LA01;noise_LA95
76382;Laerm;65202;52.520;10.528;2023-07-20T00:01:00;39.91;33.00;52.53;;
76382;Laerm;65202;52.520;10.528;2023-07-20T00:03:27;39.81;33.28;52.33;;
76382;Laerm;65202;52.520;10.528;2023-07-20T00:05:54;39.70;33.30;51.61;;
76382;Laerm;65202;52.520;10.528;2023-07-20T00:08:22;40.01;33.14;51.22;;
76382;Laerm;65202;52.520;10.528;2023-07-20T00:10:49;39.83;32.99;52.69;;
76382;Laerm;65202;52.520;10.528;2023-07-20T00:13:16;39.70;33.53;52.29;;
76382;Laerm;65202;52.520;10.528;2023-07-20T00:15:45;40.02;33.60;53.71;;
76382;Laerm;65202;52.520;10.528;2023-07-20T00:18:13;40.22;34.01;52.90;;
76382;Laerm;65202;52.520;10.528;2023-07-20T00:20:40;39.73;33.32;52.56;;
76382;Laerm;65202;52.520;10.528;2023-07-20T00:23:08;39.63;33.19;52.22;;
76382;Laerm;65202;52.520;10.528;2023-07-20T00:25:35;39.68;33.39;52.69;;
76382;Laerm;65202;52.520;10.528;2023-07-20T00:28:02;40.27;33.46;51.74;;
76382;Laerm;65202;52.520;10.528;2023-07-20T00:30:30;39.66;32.88;52.59;;
76382;Laerm;65202;52.520;10.528;2023-07-20T00:32:57;39.56;33.26;53.41;;
76382;Laerm;65202;52.520;10.528;2023-07-20T00:35:24;39.72;33.13;53.18;;
76382;Laerm;65202;52.520;10.528;2023-07-20T00:37:52;39.58;33.13;53.31;;
76382;Laerm;65202;52.520;10.528;2023-07-20T00:40:19;39.84;32.95;51.63;;
76382;Laerm;65202;52.520;10.528;2023-07-20T00:42:46;39.76;33.44;52.03;;
76382;Laerm;65202;52.520;10.528;2023-07-20T00:45:13;39.77;33.69;53.24;;
76382;Laerm;65202;52.520;10.528;2023-07-20T00:47:41;39.76;33.27;51.18;;
76382;Laerm;65202;52.520;10.528;2023-07-20T00:50:09;39.89;33.47;52.44;;
76382;Laerm;65202;52.520;10.528;2023-07-20T00:52:38;39.90;33.30;52.70;;
76382;Laerm;65202;52.520;10.528;2023-07-20T00:55:09;39.60;33.22;52.35;;
76382;Laerm;65202;52.520;10.528;2023-07-20T00:57:37;39.77;33.10;52.33;;
76382;Laerm;65202;52.520;10.528;2023-07-20T01:00:06;39.68;32.86;52.28;;
76382;Laerm;65202;52.520;10.528;2023-07-20T01:02:34;39.89;33.35;52.09;;
76382;Laerm;65202;52.520;10.528;2023-07-20T01:05:01;39.65;33.13;51.98;;
76382;Laerm;65202;52.520;10.528;2023-07-20T01:07:37;40.11;33.49;53.07;;
76382;Laerm;65202;52.520;10.528;2023-07-20T01:10:43;40.08;33.93;53.00;;
76382;Laerm;65202;52.520;10.528;2023-07-20T01:13:13;39.80;33.41;53.32;;
76382;Laerm;65202;52.520;10.528;2023-07-20T01:15:41;39.74;33.11;53.39;;
76382;Laerm;65202;52.520;10.528;2023-07-20T01:18:08;39.72;33.26;52.27;;
76382;Laerm;65202;52.520;10.528;2023-07-20T01:20:36;39.61;33.01;51.97;;
76382;Laerm;65202;52.520;10.528;2023-07-20T01:29:22;39.31;32.80;52.14;;
76382;Laerm;65202;52.520;10.528;2023-07-20T01:31:54;39.47;32.62;52.73;;
76382;Laerm;65202;52.520;10.528;2023-07-20T01:34:24;39.52;32.81;53.11;;
76382;Laerm;65202;52.520;10.528;2023-07-20T01:36:54;41.32;32.89;52.67;;
76382;Laerm;65202;52.520;10.528;2023-07-20T01:39:23;40.13;33.68;52.87;;
76382;Laerm;65202;52.520;10.528;2023-07-20T01:41:51;39.84;32.85;53.91;;
76382;Laerm;65202;52.520;10.528;2023-07-20T01:44:18;39.90;33.47;51.83;;
76382;Laerm;65202;52.520;10.528;2023-07-20T01:46:45;39.57;32.67;51.95;;
76382;Laerm;65202;52.520;10.528;2023-07-20T01:49:13;40.61;32.79;53.52;;
76382;Laerm;65202;52.520;10.528;2023-07-20T01:51:40;41.27;35.18;53.17;;
76382;Laerm;65202;52.520;10.528;2023-07-20T01:54:07;40.34;33.96;52.29;;
76382;Laerm;65202;52.520;10.528;2023-07-20T01:56:34;40.27;33.37;53.36;;
76382;Laerm;65202;52.520;10.528;2023-07-20T01:59:02;39.80;32.60;53.44;;
76382;Laerm;65202;52.520;10.528;2023-07-20T02:01:29;39.97;33.70;51.87;;
76382;Laerm;65202;52.520;10.528;2023-07-20T02:03:56;39.73;33.04;51.99;;
76382;Laerm;65202;52.520;10.528;2023-07-20T02:06:23;39.86;32.79;53.16;;
76382;Laerm;65202;52.520;10.528;2023-07-20T02:08:51;39.81;33.15;54.59;;
76382;Laerm;65202;52.520;10.528;2023-07-20T02:11:19;39.80;32.78;51.87;;
76382;Laerm;65202;52.520;10.528;2023-07-20T02:13:46;39.89;33.29;53.93;;
76382;Laerm;65202;52.520;10.528;2023-07-20T02:16:13;40.28;33.80;52.85;;
76382;Laerm;65202;52.520;10.528;2023-07-20T02:18:40;40.27;34.16;53.48;;
76382;Laerm;65202;52.520;10.528;2023-07-20T02:21:07;40.10;33.59;52.30;;
76382;Laerm;65202;52.520;10.528;2023-07-20T02:23:35;40.17;33.21;52.30;;
76382;Laerm;65202;52.520;10.528;2023-07-20T02:26:02;40.21;34.11;52.86;;
76382;Laerm;65202;52.520;10.528;2023-07-20T02:28:29;40.91;34.32;52.47;;
76382;Laerm;65202;52.520;10.528;2023-07-20T02:30:56;40.47;34.09;52.38;;
76382;Laerm;65202;52.520;10.528;2023-07-20T02:33:24;40.42;33.97;52.55;;
76382;Laerm;65202;52.520;10.528;2023-07-20T02:35:51;40.16;33.48;53.20;;
76382;Laerm;65202;52.520;10.528;2023-07-20T02:38:18;45.42;34.91;58.34;;
76382;Laerm;65202;52.520;10.528;2023-07-20T02:40:45;40.99;34.21;52.19;;
76382;Laerm;65202;52.520;10.528;2023-07-20T02:43:13;41.26;35.01;52.01;;
76382;Laerm;65202;52.520;10.528;2023-07-20T02:45:40;41.04;34.14;53.17;;
76382;Laerm;65202;52.520;10.528;2023-07-20T02:48:08;40.94;34.46;53.58;;
76382;Laerm;65202;52.520;10.528;2023-07-20T02:50:36;40.68;34.15;51.94;;
76382;Laerm;65202;52.520;10.528;2023-07-20T02:53:03;41.16;33.87;58.42;;
76382;Laerm;65202;52.520;10.528;2023-07-20T02:55:30;41.61;33.99;65.81;;
76382;Laerm;65202;52.520;10.528;2023-07-20T02:57:58;41.37;34.10;53.02;;
76382;Laerm;65202;52.520;10.528;2023-07-20T03:00:25;47.13;35.20;65.05;;
76382;Laerm;65202;52.520;10.528;2023-07-20T03:02:53;41.85;35.51;52.71;;
76382;Laerm;65202;52.520;10.528;2023-07-20T03:05:23;47.16;34.77;66.15;;
76382;Laerm;65202;52.520;10.528;2023-07-20T03:07:55;43.66;35.78;55.13;;
76382;Laerm;65202;52.520;10.528;2023-07-20T03:10:23;47.16;34.86;72.58;;
76382;Laerm;65202;52.520;10.528;2023-07-20T03:12:50;43.53;35.16;65.39;;
76382;Laerm;65202;52.520;10.528;2023-07-20T03:15:17;41.60;34.84;53.01;;
76382;Laerm;65202;52.520;10.528;2023-07-20T03:17:45;42.40;34.96;53.58;;
76382;Laerm;65202;52.520;10.528;2023-07-20T03:20:12;43.41;36.89;54.35;;
76382;Laerm;65202;52.520;10.528;2023-07-20T03:22:39;44.97;36.42;60.88;;
76382;Laerm;65202;52.520;10.528;2023-07-20T03:25:07;42.35;35.61;52.82;;
76382;Laerm;65202;52.520;10.528;2023-07-20T03:27:35;41.70;35.50;52.99;;
76382;Laerm;65202;52.520;10.528;2023-07-20T03:30:02;43.75;36.91;53.50;;
76382;Laerm;65202;52.520;10.528;2023-07-20T03:32:30;43.85;36.58;55.01;;
76382;Laerm;65202;52.520;10.528;2023-07-20T03:34:57;41.92;36.04;52.19;;
76382;Laerm;65202;52.520;10.528;2023-07-20T03:37:24;42.44;36.19;53.12;;
76382;Laerm;65202;52.520;10.528;2023-07-20T03:39:51;42.34;36.23;53.89;;
76382;Laerm;65202;52.520;10.528;2023-07-20T03:42:19;43.35;36.47;55.20;;
76382;Laerm;65202;52.520;10.528;2023-07-20T03:44:46;44.82;37.06;56.21;;
76382;Laerm;65202;52.520;10.528;2023-07-20T03:47:13;45.13;36.62;62.67;;
76382;Laerm;65202;52.520;10.528;2023-07-20T03:49:40;42.18;36.03;52.02;;
76382;Laerm;65202;52.520;10.528;2023-07-20T03:52:08;42.49;35.67;63.64;;
76382;Laerm;65202;52.520;10.528;2023-07-20T03:54:36;42.88;37.13;53.15;;
76382;Laerm;65202;52.520;10.528;2023-07-20T03:57:03;43.15;36.43;53.41;;
76382;Laerm;65202;52.520;10.528;2023-07-20T03:59:31;42.38;35.93;55.88;;
76382;Laerm;65202;52.520;10.528;2023-07-20T04:01:58;43.52;36.65;55.13;;
76382;Laerm;65202;52.520;10.528;2023-07-20T04:04:25;42.64;35.44;53.61;;
76382;Laerm;65202;52.520;10.528;2023-07-20T04:06:52;42.75;36.21;53.57;;
76382;Laerm;65202;52.520;10.528;2023-07-20T04:09:20;42.69;36.18;52.84;;
76382;Laerm;65202;52.520;10.528;2023-07-20T04:11:47;42.90;36.49;52.79;;
76382;Laerm;65202;52.520;10.528;2023-07-20T04:14:14;41.85;35.71;52.76;;
76382;Laerm;65202;52.520;10.528;2023-07-20T04:16:41;43.96;36.57;64.05;;
76382;Laerm;65202;52.520;10.528;2023-07-20T04:19:09;47.49;37.54;69.56;;
76382;Laerm;65202;52.520;10.528;2023-07-20T04:21:40;46.15;36.72;62.11;;
76382;Laerm;65202;52.520;10.528;2023-07-20T04:24:10;42.97;36.33;55.71;;
76382;Laerm;65202;52.520;10.528;2023-07-20T04:26:37;42.33;36.37;52.70;;
76382;Laerm;65202;52.520;10.528;2023-07-20T04:29:04;42.76;35.61;61.65;;
76382;Laerm;65202;52.520;10.528;2023-07-20T04:31:32;42.12;35.75;53.06;;
76382;Laerm;65202;52.520;10.528;2023-07-20T04:34:00;42.96;36.13;53.75;;
76382;Laerm;65202;52.520;10.528;2023-07-20T04:36:28;45.20;35.74;60.98;;
76382;Laerm;65202;52.520;10.528;2023-07-20T04:38:55;43.90;35.84;63.69;;
76382;Laerm;65202;52.520;10.528;2023-07-20T04:41:22;46.57;36.98;62.91;;
76382;Laerm;65202;52.520;10.528;2023-07-20T04:43:49;43.97;34.38;65.88;;
76382;Laerm;65202;52.520;10.528;2023-07-20T04:46:17;44.88;36.00;61.52;;
76382;Laerm;65202;52.520;10.528;2023-07-20T04:48:46;45.77;36.58;59.16;;
76382;Laerm;65202;52.520;10.528;2023-07-20T04:51:14;43.90;36.20;53.80;;
76382;Laerm;65202;52.520;10.528;2023-07-20T04:53:44;42.47;35.38;55.51;;
76382;Laerm;65202;52.520;10.528;2023-07-20T04:56:11;42.93;36.12;53.78;;
76382;Laerm;65202;52.520;10.528;2023-07-20T04:58:38;44.18;36.13;53.83;;
76382;Laerm;65202;52.520;10.528;2023-07-20T05:01:06;49.13;35.93;65.80;;
76382;Laerm;65202;52.520;10.528;2023-07-20T05:03:33;43.64;35.85;56.96;;
76382;Laerm;65202;52.520;10.528;2023-07-20T05:06:01;42.20;35.99;54.44;;
76382;Laerm;65202;52.520;10.528;2023-07-20T05:08:28;42.76;35.84;57.23;;
76382;Laerm;65202;52.520;10.528;2023-07-20T05:10:55;42.16;35.10;54.69;;
76382;Laerm;65202;52.520;10.528;2023-07-20T05:13:23;43.44;35.04;58.34;;
76382;Laerm;65202;52.520;10.528;2023-07-20T05:15:53;40.86;34.65;52.59;;
76382;Laerm;65202;52.520;10.528;2023-07-20T05:18:20;42.31;34.91;53.49;;
76382;Laerm;65202;52.520;10.528;2023-07-20T05:20:48;42.68;34.96;52.48;;
76382;Laerm;65202;52.520;10.528;2023-07-20T05:23:18;41.53;35.20;55.37;;
76382;Laerm;65202;52.520;10.528;2023-07-20T05:25:46;42.98;35.74;55.66;;
76382;Laerm;65202;52.520;10.528;2023-07-20T05:28:13;43.56;35.95;57.38;;
76382;Laerm;65202;52.520;10.528;2023-07-20T05:30:41;44.92;36.08;63.41;;
76382;Laerm;65202;52.520;10.528;2023-07-20T05:33:08;45.95;35.43;59.85;;
76382;Laerm;65202;52.520;10.528;2023-07-20T05:35:36;44.69;35.50;62.24;;
76382;Laerm;65202;52.520;10.528;2023-07-20T05:38:04;46.67;36.31;60.72;;
76382;Laerm;65202;52.520;10.528;2023-07-20T05:40:32;43.00;35.60;61.75;;
76382;Laerm;65202;52.520;10.528;2023-07-20T05:42:59;43.43;36.06;59.42;;
76382;Laerm;65202;52.520;10.528;2023-07-20T05:45:27;42.17;36.22;64.92;;
76382;Laerm;65202;52.520;10.528;2023-07-20T05:47:54;41.59;35.34;52.27;;
76382;Laerm;65202;52.520;10.528;2023-07-20T05:50:22;42.05;35.50;54.41;;
76382;Laerm;65202;52.520;10.528;2023-07-20T05:52:52;45.01;35.31;61.37;;
76382;Laerm;65202;52.520;10.528;2023-07-20T05:55:20;42.26;34.94;66.36;;
76382;Laerm;65202;52.520;10.528;2023-07-20T05:57:47;41.58;35.56;54.09;;
76382;Laerm;65202;52.520;10.528;2023-07-20T06:00:16;41.36;36.20;52.71;;
76382;Laerm;65202;52.520;10.528;2023-07-20T06:02:46;43.77;36.89;60.88;;
76382;Laerm;65202;52.520;10.528;2023-07-20T06:05:15;47.96;35.94;64.50;;
76382;Laerm;65202;52.520;10.528;2023-07-20T06:07:42;44.75;35.85;57.60;;
76382;Laerm;65202;52.520;10.528;2023-07-20T06:10:09;46.24;35.15;62.47;;
76382;Laerm;65202;52.520;10.528;2023-07-20T06:12:37;41.69;35.17;53.20;;
76382;Laerm;65202;52.520;10.528;2023-07-20T06:15:05;40.84;35.03;53.23;;
76382;Laerm;65202;52.520;10.528;2023-07-20T06:17:32;41.74;34.95;53.85;;
76382;Laerm;65202;52.520;10.528;2023-07-20T06:20:00;42.00;36.17;52.60;;
76382;Laerm;65202;52.520;10.528;2023-07-20T06:22:27;41.02;35.01;53.39;;
76382;Laerm;65202;52.520;10.528;2023-07-20T06:24:54;41.86;35.32;52.56;;
76382;Laerm;65202;52.520;10.528;2023-07-20T06:27:21;43.81;35.92;60.89;;
76382;Laerm;65202;52.520;10.528;2023-07-20T06:29:49;48.02;35.93;76.09;;
76382;Laerm;65202;52.520;10.528;2023-07-20T06:32:16;43.66;36.51;59.57;;
76382;Laerm;65202;52.520;10.528;2023-07-20T06:34:43;54.21;36.30;80.18;;
76382;Laerm;65202;52.520;10.528;2023-07-20T06:37:10;62.68;41.45;76.74;;
76382;Laerm;65202;52.520;10.528;2023-07-20T06:39:38;61.47;39.02;73.40;;
76382;Laerm;65202;52.520;10.528;2023-07-20T06:42:08;47.77;39.18;59.24;;
76382;Laerm;65202;52.520;10.528;2023-07-20T06:44:35;41.89;35.75;53.26;;
76382;Laerm;65202;52.520;10.528;2023-07-20T06:47:02;46.66;36.26;61.68;;
76382;Laerm;65202;52.520;10.528;2023-07-20T06:49:30;42.62;36.16;53.55;;
76382;Laerm;65202;52.520;10.528;2023-07-20T06:51:57;42.79;35.67;54.97;;
76382;Laerm;65202;52.520;10.528;2023-07-20T06:54:24;43.79;36.35;58.08;;
76382;Laerm;65202;52.520;10.528;2023-07-20T06:56:53;50.00;35.61;66.84;;
76382;Laerm;65202;52.520;10.528;2023-07-20T06:59:23;44.78;36.88;64.59;;
76382;Laerm;65202;52.520;10.528;2023-07-20T07:01:51;42.31;35.78;52.80;;
76382;Laerm;65202;52.520;10.528;2023-07-20T07:04:18;45.56;36.33;59.46;;
76382;Laerm;65202;52.520;10.528;2023-07-20T07:06:46;42.80;35.94;54.13;;
76382;Laerm;65202;52.520;10.528;2023-07-20T07:09:13;43.86;36.50;58.29;;
76382;Laerm;65202;52.520;10.528;2023-07-20T07:11:41;42.81;36.49;63.11;;
76382;Laerm;65202;52.520;10.528;2023-07-20T07:14:08;42.12;35.91;55.46;;
76382;Laerm;65202;52.520;10.528;2023-07-20T07:16:35;43.11;35.46;56.56;;
76382;Laerm;65202;52.520;10.528;2023-07-20T07:19:05;42.04;35.09;53.47;;
76382;Laerm;65202;52.520;10.528;2023-07-20T07:21:34;41.36;35.26;52.60;;
76382;Laerm;65202;52.520;10.528;2023-07-20T07:24:01;44.11;35.60;58.61;;
76382;Laerm;65202;52.520;10.528;2023-07-20T07:26:29;42.81;35.74;54.90;;
76382;Laerm;65202;52.520;10.528;2023-07-20T07:28:56;41.96;34.95;54.47;;
76382;Laerm;65202;52.520;10.528;2023-07-20T07:31:25;46.61;36.02;55.49;;
76382;Laerm;65202;52.520;10.528;2023-07-20T07:33:52;44.05;34.89;71.88;;
76382;Laerm;65202;52.520;10.528;2023-07-20T07:36:19;42.50;35.11;54.80;;
76382;Laerm;65202;52.520;10.528;2023-07-20T07:38:47;42.69;34.59;58.86;;
76382;Laerm;65202;52.520;10.528;2023-07-20T07:41:35;46.50;34.88;66.06;;
76382;Laerm;65202;52.520;10.528;2023-07-20T07:44:02;41.26;35.62;53.84;;
76382;Laerm;65202;52.520;10.528;2023-07-20T07:46:29;46.33;35.62;62.84;;
76382;Laerm;65202;52.520;10.528;2023-07-20T07:48:57;41.72;35.61;54.92;;
76382;Laerm;65202;52.520;10.528;2023-07-20T07:51:24;49.69;35.51;67.54;;
76382;Laerm;65202;52.520;10.528;2023-07-20T07:53:51;47.92;36.09;63.01;;
76382;Laerm;65202;52.520;10.528;2023-07-20T07:56:19;42.47;35.45;57.68;;
76382;Laerm;65202;52.520;10.528;2023-07-20T07:58:51;41.83;35.18;53.54;;
76382;Laerm;65202;52.520;10.528;2023-07-20T08:01:21;43.57;35.83;57.43;;
76382;Laerm;65202;52.520;10.528;2023-07-20T08:03:49;47.96;36.03;71.27;;
76382;Laerm;65202;52.520;10.528;2023-07-20T08:06:17;43.40;35.71;54.95;;
76382;Laerm;65202;52.520;10.528;2023-07-20T08:08:44;44.11;35.80;60.44;;
76382;Laerm;65202;52.520;10.528;2023-07-20T08:11:11;47.27;37.23;70.34;;
76382;Laerm;65202;52.520;10.528;2023-07-20T08:13:41;46.06;36.37;68.67;;
76382;Laerm;65202;52.520;10.528;2023-07-20T08:16:08;45.83;37.23;57.71;;
76382;Laerm;65202;52.520;10.528;2023-07-20T08:18:36;45.35;36.44;56.10;;
76382;Laerm;65202;52.520;10.528;2023-07-20T08:21:03;44.51;36.71;55.80;;
76382;Laerm;65202;52.520;10.528;2023-07-20T08:23:31;49.65;38.04;64.64;;
76382;Laerm;65202;52.520;10.528;2023-07-20T08:25:58;44.87;36.74;56.02;;
76382;Laerm;65202;52.520;10.528;2023-07-20T08:28:25;49.73;36.65;67.60;;
76382;Laerm;65202;52.520;10.528;2023-07-20T08:30:53;44.11;36.15;55.92;;
76382;Laerm;65202;52.520;10.528;2023-07-20T08:33:21;44.91;36.20;56.46;;
76382;Laerm;65202;52.520;10.528;2023-07-20T08:35:48;45.86;35.97;69.70;;
76382;Laerm;65202;52.520;10.528;2023-07-20T08:38:16;49.70;34.88;64.16;;
76382;Laerm;65202;52.520;10.528;2023-07-20T08:40:46;43.38;34.93;57.22;;
76382;Laerm;65202;52.520;10.528;2023-07-20T08:43:14;46.73;35.98;61.10;;
76382;Laerm;65202;52.520;10.528;2023-07-20T08:45:46;41.90;35.99;52.45;;
76382;Laerm;65202;52.520;10.528;2023-07-20T08:48:15;43.29;36.08;54.62;;
76382;Laerm;65202;52.520;10.528;2023-07-20T08:50:45;48.70;35.00;67.62;;
76382;Laerm;65202;52.520;10.528;2023-07-20T08:53:13;43.36;35.22;56.25;;
76382;Laerm;65202;52.520;10.528;2023-07-20T08:55:44;43.07;35.14;55.48;;
76382;Laerm;65202;52.520;10.528;2023-07-20T08:58:13;47.43;35.68;62.83;;
76382;Laerm;65202;52.520;10.528;2023-07-20T09:00:42;43.82;35.30;55.57;;
76382;Laerm;65202;52.520;10.528;2023-07-20T09:03:14;44.95;34.47;62.92;;
76382;Laerm;65202;52.520;10.528;2023-07-20T09:05:42;44.22;34.80;58.49;;
76382;Laerm;65202;52.520;10.528;2023-07-20T09:08:09;44.15;35.51;63.56;;
76382;Laerm;65202;52.520;10.528;2023-07-20T09:10:36;44.74;34.81;70.57;;
76382;Laerm;65202;52.520;10.528;2023-07-20T09:13:04;47.50;35.65;64.10;;
76382;Laerm;65202;52.520;10.528;2023-07-20T09:15:33;48.04;36.28;66.03;;
76382;Laerm;65202;52.520;10.528;2023-07-20T09:18:02;44.02;36.76;56.04;;
76382;Laerm;65202;52.520;10.528;2023-07-20T09:20:32;45.06;38.28;63.16;;
76382;Laerm;65202;52.520;10.528;2023-07-20T09:23:04;45.76;34.34;60.10;;
76382;Laerm;65202;52.520;10.528;2023-07-20T09:25:33;42.77;34.12;55.31;;
76382;Laerm;65202;52.520;10.528;2023-07-20T09:28:02;44.04;34.33;65.45;;
76382;Laerm;65202;52.520;10.528;2023-07-20T09:30:32;45.44;35.80;66.94;;
76382;Laerm;65202;52.520;10.528;2023-07-20T09:33:00;44.89;35.93;55.60;;
76382;Laerm;65202;52.520;10.528;2023-07-20T09:35:27;45.62;36.70;59.56;;
76382;Laerm;65202;52.520;10.528;2023-07-20T09:38:08;45.27;35.30;60.50;;
76382;Laerm;65202;52.520;10.528;2023-07-20T09:40:40;48.02;35.98;63.61;;
76382;Laerm;65202;52.520;10.528;2023-07-20T09:43:11;48.24;35.90;64.99;;
76382;Laerm;65202;52.520;10.528;2023-07-20T09:45:42;43.80;35.61;55.48;;
76382;Laerm;65202;52.520;10.528;2023-07-20T09:48:12;52.49;35.70;69.41;;
76382;Laerm;65202;52.520;10.528;2023-07-20T09:50:50;45.63;35.23;60.28;;
76382;Laerm;65202;52.520;10.528;2023-07-20T09:53:19;49.23;36.80;67.67;;
76382;Laerm;65202;52.520;10.528;2023-07-20T09:55:47;45.87;35.37;60.65;;
76382;Laerm;65202;52.520;10.528;2023-07-20T09:58:16;43.72;35.60;58.93;;
76382;Laerm;65202;52.520;10.528;2023-07-20T10:00:46;43.20;35.44;56.86;;
76382;Laerm;65202;52.520;10.528;2023-07-20T10:03:25;48.80;34.96;65.54;;
76382;Laerm;65202;52.520;10.528;2023-07-20T10:06:05;47.36;34.36;64.81;;
76382;Laerm;65202;52.520;10.528;2023-07-20T10:08:39;51.84;35.06;68.91;;
76382;Laerm;65202;52.520;10.528;2023-07-20T10:11:13;48.31;33.98;63.30;;
76382;Laerm;65202;52.520;10.528;2023-07-20T10:13:44;42.43;34.51;54.77;;
76382;Laerm;65202;52.520;10.528;2023-07-20T10:16:28;42.33;35.20;56.66;;
76382;Laerm;65202;52.520;10.528;2023-07-20T10:19:09;43.45;34.21;56.08;;
76382;Laerm;65202;52.520;10.528;2023-07-20T10:21:48;47.31;34.66;63.98;;
76382;Laerm;65202;52.520;10.528;2023-07-20T10:24:26;49.25;35.52;67.41;;
76382;Laerm;65202;52.520;10.528;2023-07-20T10:26:55;42.80;34.62;56.45;;
76382;Laerm;65202;52.520;10.528;2023-07-20T10:29:24;43.18;35.45;53.77;;
76382;Laerm;65202;52.520;10.528;2023-07-20T10:31:52;51.42;36.03;68.52;;
76382;Laerm;65202;52.520;10.528;2023-07-20T10:34:22;48.72;35.42;64.00;;
76382;Laerm;65202;52.520;10.528;2023-07-20T10:36:49;44.94;35.91;56.72;;
76382;Laerm;65202;52.520;10.528;2023-07-20T10:39:26;42.85;36.58;54.99;;
76382;Laerm;65202;52.520;10.528;2023-07-20T10:42:09;44.99;37.54;61.07;;
76382;Laerm;65202;52.520;10.528;2023-07-20T10:44:38;43.03;35.69;55.03;;
76382;Laerm;65202;52.520;10.528;2023-07-20T10:47:10;43.10;36.70;55.31;;
76382;Laerm;65202;52.520;10.528;2023-07-20T10:49:59;42.52;36.17;56.77;;
76382;Laerm;65202;52.520;10.528;2023-07-20T10:52:41;45.89;37.08;63.04;;
76382;Laerm;65202;52.520;10.528;2023-07-20T10:55:16;52.95;39.41;69.15;;
76382;Laerm;65202;52.520;10.528;2023-07-20T10:58:08;43.70;36.47;54.88;;
76382;Laerm;65202;52.520;10.528;2023-07-20T11:00:38;44.10;36.05;53.49;;
76382;Laerm;65202;52.520;10.528;2023-07-20T11:03:38;48.58;34.88;66.64;;
76382;Laerm;65202;52.520;10.528;2023-07-20T11:11:29;49.09;37.03;67.86;;
76382;Laerm;65202;52.520;10.528;2023-07-20T11:14:03;43.76;35.50;70.79;;
76382;Laerm;65202;52.520;10.528;2023-07-20T11:19:13;44.60;38.03;53.58;;
76382;Laerm;65202;52.520;10.528;2023-07-20T11:22:04;44.67;37.10;61.30;;
76382;Laerm;65202;52.520;10.528;2023-07-20T11:24:38;43.07;35.32;55.13;;
76382;Laerm;65202;52.520;10.528;2023-07-20T11:27:09;43.63;35.57;62.69;;
76382;Laerm;65202;52.520;10.528;2023-07-20T11:29:37;44.10;35.15;59.12;;
76382;Laerm;65202;52.520;10.528;2023-07-20T11:32:05;47.34;34.50;62.91;;
76382;Laerm;65202;52.520;10.528;2023-07-20T11:34:35;52.59;36.21;69.75;;
76382;Laerm;65202;52.520;10.528;2023-07-20T11:37:02;43.89;36.56;55.90;;
76382;Laerm;65202;52.520;10.528;2023-07-20T11:39:33;44.74;38.24;59.57;;
76382;Laerm;65202;52.520;10.528;2023-07-20T11:42:01;44.50;38.99;53.75;;
76382;Laerm;65202;52.520;10.528;2023-07-20T11:44:29;45.28;38.16;54.69;;
76382;Laerm;65202;52.520;10.528;2023-07-20T11:47:07;44.60;39.44;53.23;;
76382;Laerm;65202;52.520;10.528;2023-07-20T11:49:40;46.37;36.16;61.12;;
76382;Laerm;65202;52.520;10.528;2023-07-20T11:52:11;46.58;37.15;62.25;;
76382;Laerm;65202;52.520;10.528;2023-07-20T11:54:40;45.92;38.26;54.99;;
76382;Laerm;65202;52.520;10.528;2023-07-20T11:57:18;47.89;39.17;64.90;;
76382;Laerm;65202;52.520;10.528;2023-07-20T12:00:01;49.34;41.12;62.58;;
76382;Laerm;65202;52.520;10.528;2023-07-20T12:02:32;48.91;41.00;63.47;;
76382;Laerm;65202;52.520;10.528;2023-07-20T12:04:59;48.33;41.19;68.40;;
76382;Laerm;65202;52.520;10.528;2023-07-20T12:07:28;47.05;39.83;61.32;;
76382;Laerm;65202;52.520;10.528;2023-07-20T12:10:10;47.40;37.64;58.85;;
76382;Laerm;65202;52.520;10.528;2023-07-20T12:12:43;48.26;37.58;68.75;;
76382;Laerm;65202;52.520;10.528;2023-07-20T12:15:20;45.49;38.10;58.44;;
76382;Laerm;65202;52.520;10.528;2023-07-20T12:17:53;48.23;36.51;66.68;;
76382;Laerm;65202;52.520;10.528;2023-07-20T12:20:37;48.64;36.91;65.14;;
76382;Laerm;65202;52.520;10.528;2023-07-20T12:23:12;45.35;38.08;54.44;;
76382;Laerm;65202;52.520;10.528;2023-07-20T12:25:46;44.56;37.85;57.05;;
76382;Laerm;65202;52.520;10.528;2023-07-20T12:28:17;46.35;40.39;54.96;;
76382;Laerm;65202;52.520;10.528;2023-07-20T12:30:46;48.10;36.76;62.25;;
76382;Laerm;65202;52.520;10.528;2023-07-20T12:33:15;43.58;35.87;57.98;;
76382;Laerm;65202;52.520;10.528;2023-07-20T12:35:43;43.96;37.00;53.75;;
76382;Laerm;65202;52.520;10.528;2023-07-20T12:38:11;44.76;35.99;55.78;;
76382;Laerm;65202;52.520;10.528;2023-07-20T12:40:38;43.35;36.02;59.06;;
76382;Laerm;65202;52.520;10.528;2023-07-20T12:43:05;43.18;36.48;57.18;;
76382;Laerm;65202;52.520;10.528;2023-07-20T12:45:34;46.17;35.92;63.14;;
76382;Laerm;65202;52.520;10.528;2023-07-20T12:48:01;45.74;36.47;57.83;;
76382;Laerm;65202;52.520;10.528;2023-07-20T12:50:28;49.65;36.94;68.68;;
76382;Laerm;65202;52.520;10.528;2023-07-20T12:52:57;47.53;38.30;62.37;;
76382;Laerm;65202;52.520;10.528;2023-07-20T12:55:24;44.47;37.34;57.23;;
76382;Laerm;65202;52.520;10.528;2023-07-20T12:57:51;45.01;35.71;61.15;;
76382;Laerm;65202;52.520;10.528;2023-07-20T13:00:19;44.21;36.88;54.27;;
76382;Laerm;65202;52.520;10.528;2023-07-20T13:02:46;43.22;36.92;52.75;;
76382;Laerm;65202;52.520;10.528;2023-07-20T13:05:14;46.37;36.28;67.10;;
76382;Laerm;65202;52.520;10.528;2023-07-20T13:07:42;51.53;35.99;66.58;;
76382;Laerm;65202;52.520;10.528;2023-07-20T13:10:12;49.52;40.14;61.14;;
76382;Laerm;65202;52.520;10.528;2023-07-20T13:12:41;46.63;39.46;54.54;;
76382;Laerm;65202;52.520;10.528;2023-07-20T13:15:10;47.04;40.84;55.00;;
76382;Laerm;65202;52.520;10.528;2023-07-20T13:17:39;45.93;37.17;60.61;;
76382;Laerm;65202;52.520;10.528;2023-07-20T13:20:09;47.56;37.73;65.71;;
76382;Laerm;65202;52.520;10.528;2023-07-20T13:22:38;44.99;37.62;57.38;;
76382;Laerm;65202;52.520;10.528;2023-07-20T13:25:07;44.80;38.23;55.92;;
76382;Laerm;65202;52.520;10.528;2023-07-20T13:27:35;44.38;36.97;59.44;;
76382;Laerm;65202;52.520;10.528;2023-07-20T13:30:05;49.64;36.69;68.72;;
76382;Laerm;65202;52.520;10.528;2023-07-20T13:32:37;44.44;35.42;58.07;;
76382;Laerm;65202;52.520;10.528;2023-07-20T13:35:07;45.48;36.50;57.54;;
76382;Laerm;65202;52.520;10.528;2023-07-20T13:37:35;44.70;37.02;57.10;;
76382;Laerm;65202;52.520;10.528;2023-07-20T13:40:02;44.82;36.77;59.32;;
76382;Laerm;65202;52.520;10.528;2023-07-20T13:42:34;46.13;36.92;64.94;;
76382;Laerm;65202;52.520;10.528;2023-07-20T13:45:01;44.16;35.66;61.13;;
76382;Laerm;65202;52.520;10.528;2023-07-20T13:47:32;46.82;36.18;69.80;;
76382;Laerm;65202;52.520;10.528;2023-07-20T13:50:00;50.02;40.12;65.13;;
76382;Laerm;65202;52.520;10.528;2023-07-20T13:52:30;47.42;38.79;59.00;;
76382;Laerm;65202;52.520;10.528;2023-07-20T13:55:01;45.92;38.19;58.98;;
76382;Laerm;65202;52.520;10.528;2023-07-20T13:57:32;45.26;36.45;58.60;;